sensor_id;sensor_type;location;lat;lon;timestamp;pressure;altitude;pressure_sealevel;temperature;humidity
75996;BME280;64681;49.738;9.004;2023-03-01T00:01:33;100541.38;;;-3.01;74.10
75996;BME280;64681;49.738;9.004;2023-03-01T00:03:59;100547.47;;;-2.75;73.00
75996;BME280;64681;49.738;9.004;2023-03-01T00:06:26;100550.56;;;-2.85;73.19
75996;BME280;64681;49.738;9.004;2023-03-01T00:08:52;100557.66;;;-2.99;73.59
75996;BME280;64681;49.738;9.004;2023-03-01T00:11:27;100561.84;;;-3.30;74.44
75996;BME280;64681;49.738;9.004;2023-03-01T00:13:55;100555.59;;;-3.22;74.92
75996;BME280;64681;49.738;9.004;2023-03-01T00:16:31;100546.47;;;-3.06;74.43
75996;BME280;64681;49.738;9.004;2023-03-01T00:18:59;100551.38;;;-3.23;74.50
75996;BME280;64681;49.738;9.004;2023-03-01T00:21:26;100538.63;;;-3.06;73.48
75996;BME280;64681;49.738;9.004;2023-03-01T00:23:53;100546.75;;;-2.89;72.82
75996;BME280;64681;49.738;9.004;2023-03-01T00:26:21;100542.88;;;-2.80;72.62
75996;BME280;64681;49.738;9.004;2023-03-01T00:28:47;100546.94;;;-2.84;72.31
75996;BME280;64681;49.738;9.004;2023-03-01T00:31:16;100543.75;;;-2.93;72.58
75996;BME280;64681;49.738;9.004;2023-03-01T00:33:43;100550.09;;;-3.14;73.39
75996;BME280;64681;49.738;9.004;2023-03-01T00:36:10;100548.09;;;-3.12;72.98
75996;BME280;64681;49.738;9.004;2023-03-01T00:38:40;100550.25;;;-3.02;72.98
75996;BME280;64681;49.738;9.004;2023-03-01T00:41:17;100552.84;;;-3.02;72.91
75996;BME280;64681;49.738;9.004;2023-03-01T00:43:44;100553.28;;;-3.05;72.77
75996;BME280;64681;49.738;9.004;2023-03-01T00:46:15;100552.94;;;-3.15;72.89
75996;BME280;64681;49.738;9.004;2023-03-01T00:48:41;100545.84;;;-3.08;72.50
75996;BME280;64681;49.738;9.004;2023-03-01T00:53:44;100537.16;;;-2.95;72.91
75996;BME280;64681;49.738;9.004;2023-03-01T00:56:12;100530.69;;;-2.93;72.68
75996;BME280;64681;49.738;9.004;2023-03-01T00:58:38;100523.56;;;-3.11;72.58
75996;BME280;64681;49.738;9.004;2023-03-01T01:01:09;100520.97;;;-3.11;72.66
75996;BME280;64681;49.738;9.004;2023-03-01T01:03:47;100517.03;;;-3.27;73.53
75996;BME280;64681;49.738;9.004;2023-03-01T01:06:19;100507.50;;;-3.14;73.43
75996;BME280;64681;49.738;9.004;2023-03-01T01:08:45;100510.09;;;-3.08;73.42
75996;BME280;64681;49.738;9.004;2023-03-01T01:11:12;100493.81;;;-3.10;72.56
75996;BME280;64681;49.738;9.004;2023-03-01T01:13:39;100498.78;;;-3.02;72.69
75996;BME280;64681;49.738;9.004;2023-03-01T01:16:05;100475.81;;;-3.25;72.63
75996;BME280;64681;49.738;9.004;2023-03-01T01:18:31;100481.22;;;-3.20;72.75
75996;BME280;64681;49.738;9.004;2023-03-01T01:20:57;100476.53;;;-3.11;72.35
75996;BME280;64681;49.738;9.004;2023-03-01T01:23:22;100474.94;;;-3.12;71.97
75996;BME280;64681;49.738;9.004;2023-03-01T01:25:48;100473.00;;;-3.23;73.31
75996;BME280;64681;49.738;9.004;2023-03-01T01:28:14;100470.03;;;-3.27;72.93
75996;BME280;64681;49.738;9.004;2023-03-01T01:30:39;100464.03;;;-3.34;73.17
75996;BME280;64681;49.738;9.004;2023-03-01T01:33:05;100473.78;;;-3.16;72.46
75996;BME280;64681;49.738;9.004;2023-03-01T01:35:30;100477.63;;;-3.25;73.21
75996;BME280;64681;49.738;9.004;2023-03-01T01:37:56;100467.69;;;-3.42;74.37
75996;BME280;64681;49.738;9.004;2023-03-01T01:40:21;100458.16;;;-3.61;76.30
75996;BME280;64681;49.738;9.004;2023-03-01T01:42:47;100466.78;;;-3.22;74.56
75996;BME280;64681;49.738;9.004;2023-03-01T01:47:57;100464.00;;;-3.02;73.35
75996;BME280;64681;49.738;9.004;2023-03-01T01:50:25;100461.75;;;-2.92;72.61
75996;BME280;64681;49.738;9.004;2023-03-01T01:52:53;100455.72;;;-2.92;73.36
75996;BME280;64681;49.738;9.004;2023-03-01T01:55:25;100457.41;;;-2.79;72.95
75996;BME280;64681;49.738;9.004;2023-03-01T01:58:02;100461.47;;;-3.09;73.62
75996;BME280;64681;49.738;9.004;2023-03-01T02:00:30;100447.25;;;-2.88;73.00
75996;BME280;64681;49.738;9.004;2023-03-01T02:03:19;100455.25;;;-2.82;72.49
75996;BME280;64681;49.738;9.004;2023-03-01T02:06:02;100452.28;;;-2.93;73.56
75996;BME280;64681;49.738;9.004;2023-03-01T02:08:33;100449.41;;;-2.84;73.65
75996;BME280;64681;49.738;9.004;2023-03-01T02:11:00;100443.88;;;-2.69;72.61
75996;BME280;64681;49.738;9.004;2023-03-01T02:13:27;100447.63;;;-2.84;73.04
75996;BME280;64681;49.738;9.004;2023-03-01T02:15:53;100446.56;;;-3.08;73.97
75996;BME280;64681;49.738;9.004;2023-03-01T02:18:22;100432.38;;;-3.19;74.36
75996;BME280;64681;49.738;9.004;2023-03-01T02:23:33;100444.34;;;-2.79;73.65
75996;BME280;64681;49.738;9.004;2023-03-01T02:28:41;100437.16;;;-2.59;72.40
75996;BME280;64681;49.738;9.004;2023-03-01T02:31:10;100443.59;;;-2.87;73.50
75996;BME280;64681;49.738;9.004;2023-03-01T02:33:55;100442.94;;;-3.32;75.67
75996;BME280;64681;49.738;9.004;2023-03-01T02:36:26;100436.66;;;-3.63;76.44
75996;BME280;64681;49.738;9.004;2023-03-01T02:38:58;100435.94;;;-3.39;75.88
75996;BME280;64681;49.738;9.004;2023-03-01T02:41:27;100433.28;;;-3.71;77.05
75996;BME280;64681;49.738;9.004;2023-03-01T02:43:54;100433.09;;;-3.37;75.61
75996;BME280;64681;49.738;9.004;2023-03-01T02:46:24;100426.44;;;-3.01;74.81
75996;BME280;64681;49.738;9.004;2023-03-01T02:48:52;100425.56;;;-2.95;74.10
75996;BME280;64681;49.738;9.004;2023-03-01T02:54:28;100417.06;;;-2.83;74.28
75996;BME280;64681;49.738;9.004;2023-03-01T02:56:57;100409.72;;;-2.75;73.90
75996;BME280;64681;49.738;9.004;2023-03-01T02:59:30;100409.69;;;-2.68;73.51
75996;BME280;64681;49.738;9.004;2023-03-01T03:01:56;100412.59;;;-2.83;73.62
75996;BME280;64681;49.738;9.004;2023-03-01T03:04:22;100409.91;;;-2.69;73.08
75996;BME280;64681;49.738;9.004;2023-03-01T03:06:50;100402.56;;;-2.61;72.78
75996;BME280;64681;49.738;9.004;2023-03-01T03:09:17;100389.22;;;-2.52;72.50
75996;BME280;64681;49.738;9.004;2023-03-01T03:11:43;100388.06;;;-2.19;71.22
75996;BME280;64681;49.738;9.004;2023-03-01T03:14:11;100398.16;;;-2.42;71.77
75996;BME280;64681;49.738;9.004;2023-03-01T03:16:42;100389.88;;;-2.57;72.69
75996;BME280;64681;49.738;9.004;2023-03-01T03:19:09;100380.31;;;-2.70;72.84
75996;BME280;64681;49.738;9.004;2023-03-01T03:21:35;100380.50;;;-2.65;72.75
75996;BME280;64681;49.738;9.004;2023-03-01T03:24:02;100388.25;;;-2.58;72.52
75996;BME280;64681;49.738;9.004;2023-03-01T03:26:28;100382.53;;;-2.48;72.14
75996;BME280;64681;49.738;9.004;2023-03-01T03:28:54;100380.72;;;-2.48;72.88
75996;BME280;64681;49.738;9.004;2023-03-01T03:31:20;100377.75;;;-2.51;72.80
75996;BME280;64681;49.738;9.004;2023-03-01T03:33:45;100369.38;;;-2.42;71.92
75996;BME280;64681;49.738;9.004;2023-03-01T03:36:16;100369.22;;;-2.84;72.85
75996;BME280;64681;49.738;9.004;2023-03-01T03:38:43;100360.56;;;-2.84;73.25
75996;BME280;64681;49.738;9.004;2023-03-01T03:41:10;100368.69;;;-2.93;73.60
75996;BME280;64681;49.738;9.004;2023-03-01T03:43:38;100366.25;;;-2.88;73.56
75996;BME280;64681;49.738;9.004;2023-03-01T03:46:04;100360.69;;;-2.98;73.80
75996;BME280;64681;49.738;9.004;2023-03-01T03:48:35;100367.06;;;-2.94;74.28
75996;BME280;64681;49.738;9.004;2023-03-01T03:51:01;100365.56;;;-2.83;73.31
75996;BME280;64681;49.738;9.004;2023-03-01T03:53:28;100363.50;;;-2.74;73.07
75996;BME280;64681;49.738;9.004;2023-03-01T03:55:54;100360.78;;;-2.67;72.67
75996;BME280;64681;49.738;9.004;2023-03-01T03:58:23;100362.75;;;-2.63;72.31
75996;BME280;64681;49.738;9.004;2023-03-01T04:00:54;100361.38;;;-2.65;71.89
75996;BME280;64681;49.738;9.004;2023-03-01T04:03:22;100368.13;;;-2.76;72.73
75996;BME280;64681;49.738;9.004;2023-03-01T04:05:50;100362.69;;;-2.75;72.09
75996;BME280;64681;49.738;9.004;2023-03-01T04:08:17;100369.31;;;-2.72;72.29
75996;BME280;64681;49.738;9.004;2023-03-01T04:10:48;100355.94;;;-2.82;72.40
75996;BME280;64681;49.738;9.004;2023-03-01T04:13:17;100370.06;;;-2.90;73.38
75996;BME280;64681;49.738;9.004;2023-03-01T04:15:45;100363.91;;;-2.96;73.99
75996;BME280;64681;49.738;9.004;2023-03-01T04:18:14;100361.94;;;-2.82;73.00
75996;BME280;64681;49.738;9.004;2023-03-01T04:20:41;100361.38;;;-2.84;72.69
75996;BME280;64681;49.738;9.004;2023-03-01T04:25:42;100362.81;;;-2.88;72.64
75996;BME280;64681;49.738;9.004;2023-03-01T04:28:10;100360.88;;;-2.74;72.50
75996;BME280;64681;49.738;9.004;2023-03-01T04:30:37;100358.09;;;-2.79;72.75
75996;BME280;64681;49.738;9.004;2023-03-01T04:33:05;100364.44;;;-2.68;72.39
75996;BME280;64681;49.738;9.004;2023-03-01T04:35:32;100361.97;;;-2.63;71.70
75996;BME280;64681;49.738;9.004;2023-03-01T04:37:58;100363.22;;;-2.66;72.11
75996;BME280;64681;49.738;9.004;2023-03-01T04:40:24;100366.34;;;-2.57;71.35
75996;BME280;64681;49.738;9.004;2023-03-01T04:42:50;100362.94;;;-2.58;71.96
75996;BME280;64681;49.738;9.004;2023-03-01T04:45:16;100359.06;;;-2.55;71.68
75996;BME280;64681;49.738;9.004;2023-03-01T04:47:44;100363.22;;;-2.47;70.99
75996;BME280;64681;49.738;9.004;2023-03-01T04:50:14;100359.81;;;-2.48;71.72
75996;BME280;64681;49.738;9.004;2023-03-01T04:52:40;100366.69;;;-2.53;71.44
75996;BME280;64681;49.738;9.004;2023-03-01T04:55:07;100379.19;;;-2.56;71.92
75996;BME280;64681;49.738;9.004;2023-03-01T04:57:33;100365.97;;;-2.61;71.81
75996;BME280;64681;49.738;9.004;2023-03-01T04:59:58;100375.56;;;-2.55;72.13
75996;BME280;64681;49.738;9.004;2023-03-01T05:02:24;100370.63;;;-2.44;71.16
75996;BME280;64681;49.738;9.004;2023-03-01T05:04:50;100365.25;;;-2.49;71.25
75996;BME280;64681;49.738;9.004;2023-03-01T05:07:15;100367.41;;;-2.46;72.08
75996;BME280;64681;49.738;9.004;2023-03-01T05:09:47;100356.53;;;-2.43;71.68
75996;BME280;64681;49.738;9.004;2023-03-01T05:12:14;100357.84;;;-2.34;71.81
75996;BME280;64681;49.738;9.004;2023-03-01T05:14:40;100350.41;;;-2.56;71.88
75996;BME280;64681;49.738;9.004;2023-03-01T05:17:06;100352.22;;;-2.38;71.75
75996;BME280;64681;49.738;9.004;2023-03-01T05:19:32;100350.56;;;-2.32;72.08
75996;BME280;64681;49.738;9.004;2023-03-01T05:21:58;100348.31;;;-2.47;72.52
75996;BME280;64681;49.738;9.004;2023-03-01T05:24:28;100357.69;;;-2.58;72.65
75996;BME280;64681;49.738;9.004;2023-03-01T05:26:54;100348.81;;;-2.57;72.85
75996;BME280;64681;49.738;9.004;2023-03-01T05:29:21;100355.44;;;-2.54;72.60
75996;BME280;64681;49.738;9.004;2023-03-01T05:31:59;100349.28;;;-2.60;73.52
75996;BME280;64681;49.738;9.004;2023-03-01T05:34:29;100336.91;;;-2.52;72.81
75996;BME280;64681;49.738;9.004;2023-03-01T05:36:55;100341.94;;;-2.32;72.64
75996;BME280;64681;49.738;9.004;2023-03-01T05:39:23;100336.63;;;-2.44;72.76
75996;BME280;64681;49.738;9.004;2023-03-01T05:41:54;100349.91;;;-2.27;72.22
75996;BME280;64681;49.738;9.004;2023-03-01T05:44:20;100345.69;;;-2.28;72.07
75996;BME280;64681;49.738;9.004;2023-03-01T05:46:46;100350.84;;;-2.21;72.09
75996;BME280;64681;49.738;9.004;2023-03-01T05:49:13;100344.97;;;-2.17;71.89
75996;BME280;64681;49.738;9.004;2023-03-01T05:51:43;100339.66;;;-2.29;72.77
75996;BME280;64681;49.738;9.004;2023-03-01T05:54:12;100347.81;;;-2.37;72.16
75996;BME280;64681;49.738;9.004;2023-03-01T05:56:38;100347.16;;;-2.32;72.76
75996;BME280;64681;49.738;9.004;2023-03-01T05:59:05;100326.63;;;-2.66;73.13
75996;BME280;64681;49.738;9.004;2023-03-01T06:01:31;100329.69;;;-2.94;74.92
75996;BME280;64681;49.738;9.004;2023-03-01T06:03:57;100336.63;;;-2.81;74.64
75996;BME280;64681;49.738;9.004;2023-03-01T06:06:23;100336.41;;;-2.43;73.62
75996;BME280;64681;49.738;9.004;2023-03-01T06:08:49;100343.28;;;-2.11;72.08
75996;BME280;64681;49.738;9.004;2023-03-01T06:11:15;100340.56;;;-2.04;72.21
75996;BME280;64681;49.738;9.004;2023-03-01T06:13:45;100333.97;;;-2.26;72.46
75996;BME280;64681;49.738;9.004;2023-03-01T06:16:11;100338.72;;;-2.16;72.42
75996;BME280;64681;49.738;9.004;2023-03-01T06:18:37;100334.56;;;-2.05;72.53
75996;BME280;64681;49.738;9.004;2023-03-01T06:21:04;100339.50;;;-2.15;73.07
75996;BME280;64681;49.738;9.004;2023-03-01T06:23:30;100339.56;;;-2.03;72.71
75996;BME280;64681;49.738;9.004;2023-03-01T06:25:56;100330.41;;;-1.82;71.81
75996;BME280;64681;49.738;9.004;2023-03-01T06:28:22;100334.13;;;-1.60;71.02
75996;BME280;64681;49.738;9.004;2023-03-01T06:30:49;100324.78;;;-1.55;71.04
75996;BME280;64681;49.738;9.004;2023-03-01T06:33:14;100333.03;;;-1.82;71.63
75996;BME280;64681;49.738;9.004;2023-03-01T06:35:40;100328.41;;;-1.56;71.51
75996;BME280;64681;49.738;9.004;2023-03-01T06:38:06;100328.81;;;-1.29;70.58
75996;BME280;64681;49.738;9.004;2023-03-01T06:40:32;100319.69;;;-1.03;69.84
75996;BME280;64681;49.738;9.004;2023-03-01T06:43:00;100324.25;;;-0.86;69.13
75996;BME280;64681;49.738;9.004;2023-03-01T06:45:26;100320.25;;;-0.77;69.14
75996;BME280;64681;49.738;9.004;2023-03-01T06:47:52;100325.81;;;-0.61;68.72
75996;BME280;64681;49.738;9.004;2023-03-01T06:50:18;100329.72;;;-0.64;68.53
75996;BME280;64681;49.738;9.004;2023-03-01T06:52:44;100305.94;;;-0.45;67.49
75996;BME280;64681;49.738;9.004;2023-03-01T06:55:10;100324.47;;;-0.23;67.38
75996;BME280;64681;49.738;9.004;2023-03-01T06:57:37;100323.16;;;-0.09;67.55
75996;BME280;64681;49.738;9.004;2023-03-01T07:00:06;100324.53;;;-0.06;66.67
75996;BME280;64681;49.738;9.004;2023-03-01T07:02:32;100311.03;;;0.02;66.50
75996;BME280;64681;49.738;9.004;2023-03-01T07:04:58;100318.19;;;0.07;66.58
75996;BME280;64681;49.738;9.004;2023-03-01T07:07:23;100312.16;;;0.06;66.02
75996;BME280;64681;49.738;9.004;2023-03-01T07:09:49;100315.91;;;0.10;66.04
75996;BME280;64681;49.738;9.004;2023-03-01T07:12:15;100312.31;;;0.17;65.75
75996;BME280;64681;49.738;9.004;2023-03-01T07:14:40;100315.56;;;0.07;66.30
75996;BME280;64681;49.738;9.004;2023-03-01T07:17:06;100298.81;;;0.25;65.59
75996;BME280;64681;49.738;9.004;2023-03-01T07:19:32;100286.75;;;-0.05;65.66
75996;BME280;64681;49.738;9.004;2023-03-01T07:21:58;100303.31;;;-0.05;66.24
75996;BME280;64681;49.738;9.004;2023-03-01T07:24:23;100309.38;;;-0.16;66.67
75996;BME280;64681;49.738;9.004;2023-03-01T07:26:50;100305.72;;;-0.15;66.99
75996;BME280;64681;49.738;9.004;2023-03-01T07:29:17;100301.06;;;-0.13;66.80
75996;BME280;64681;49.738;9.004;2023-03-01T07:31:43;100293.16;;;-1.06;70.49
75996;BME280;64681;49.738;9.004;2023-03-01T07:34:09;100294.97;;;-0.95;70.35
75996;BME280;64681;49.738;9.004;2023-03-01T07:36:36;100299.03;;;-0.75;69.63
75996;BME280;64681;49.738;9.004;2023-03-01T07:39:02;100290.81;;;-0.67;69.71
75996;BME280;64681;49.738;9.004;2023-03-01T07:41:29;100286.53;;;-0.85;70.07
75996;BME280;64681;49.738;9.004;2023-03-01T07:43:54;100288.69;;;-0.29;68.73
75996;BME280;64681;49.738;9.004;2023-03-01T07:46:20;100288.19;;;-0.67;69.56
75996;BME280;64681;49.738;9.004;2023-03-01T07:48:46;100277.97;;;-0.40;69.44
75996;BME280;64681;49.738;9.004;2023-03-01T07:51:12;100285.75;;;-0.16;68.72
75996;BME280;64681;49.738;9.004;2023-03-01T07:53:37;100287.88;;;-0.01;68.60
75996;BME280;64681;49.738;9.004;2023-03-01T07:56:14;100287.75;;;0.57;66.64
75996;BME280;64681;49.738;9.004;2023-03-01T07:58:42;100277.34;;;1.46;64.43
75996;BME280;64681;49.738;9.004;2023-03-01T08:01:12;100275.00;;;1.99;62.71
75996;BME280;64681;49.738;9.004;2023-03-01T08:03:39;100267.22;;;2.90;60.88
75996;BME280;64681;49.738;9.004;2023-03-01T08:06:07;100268.69;;;3.18;59.33
75996;BME280;64681;49.738;9.004;2023-03-01T08:08:33;100265.97;;;3.82;57.09
75996;BME280;64681;49.738;9.004;2023-03-01T08:11:00;100261.94;;;3.48;54.65
75996;BME280;64681;49.738;9.004;2023-03-01T08:13:27;100266.34;;;3.27;56.00
75996;BME280;64681;49.738;9.004;2023-03-01T08:15:54;100272.44;;;2.36;54.30
75996;BME280;64681;49.738;9.004;2023-03-01T08:18:20;100246.22;;;1.37;57.03
75996;BME280;64681;49.738;9.004;2023-03-01T08:20:46;100258.44;;;1.71;57.35
75996;BME280;64681;49.738;9.004;2023-03-01T08:23:12;100262.06;;;1.65;57.25
75996;BME280;64681;49.738;9.004;2023-03-01T08:25:39;100261.13;;;1.54;58.80
75996;BME280;64681;49.738;9.004;2023-03-01T08:28:05;100254.84;;;2.15;56.59
75996;BME280;64681;49.738;9.004;2023-03-01T08:30:31;100263.50;;;2.37;55.54
75996;BME280;64681;49.738;9.004;2023-03-01T08:32:57;100270.44;;;2.54;54.75
75996;BME280;64681;49.738;9.004;2023-03-01T08:35:23;100260.19;;;2.58;54.69
75996;BME280;64681;49.738;9.004;2023-03-01T08:37:49;100260.78;;;3.23;53.14
75996;BME280;64681;49.738;9.004;2023-03-01T08:40:14;100264.44;;;2.26;54.84
75996;BME280;64681;49.738;9.004;2023-03-01T08:42:41;100266.09;;;2.05;55.71
75996;BME280;64681;49.738;9.004;2023-03-01T08:45:11;100262.09;;;1.97;56.97
75996;BME280;64681;49.738;9.004;2023-03-01T08:47:36;100245.06;;;2.85;53.85
75996;BME280;64681;49.738;9.004;2023-03-01T08:50:03;100250.84;;;2.07;55.83
75996;BME280;64681;49.738;9.004;2023-03-01T08:52:29;100249.28;;;2.44;54.95
75996;BME280;64681;49.738;9.004;2023-03-01T08:54:56;100259.06;;;1.83;56.14
75996;BME280;64681;49.738;9.004;2023-03-01T08:57:22;100248.81;;;1.87;56.30
75996;BME280;64681;49.738;9.004;2023-03-01T08:59:47;100247.69;;;2.37;55.32
75996;BME280;64681;49.738;9.004;2023-03-01T09:02:17;100246.03;;;1.71;56.75
75996;BME280;64681;49.738;9.004;2023-03-01T09:04:43;100239.03;;;1.82;56.40
75996;BME280;64681;49.738;9.004;2023-03-01T09:07:10;100238.59;;;2.23;55.31
75996;BME280;64681;49.738;9.004;2023-03-01T09:09:35;100237.09;;;2.75;54.44
75996;BME280;64681;49.738;9.004;2023-03-01T09:12:02;100238.41;;;2.35;54.44
75996;BME280;64681;49.738;9.004;2023-03-01T09:14:27;100232.09;;;2.36;54.81
75996;BME280;64681;49.738;9.004;2023-03-01T09:16:53;100231.06;;;2.42;54.25
75996;BME280;64681;49.738;9.004;2023-03-01T09:19:19;100228.22;;;2.11;56.50
75996;BME280;64681;49.738;9.004;2023-03-01T09:21:44;100207.25;;;1.89;55.46
75996;BME280;64681;49.738;9.004;2023-03-01T09:24:20;100215.53;;;2.41;54.92
75996;BME280;64681;49.738;9.004;2023-03-01T09:26:46;100217.91;;;2.04;55.27
75996;BME280;64681;49.738;9.004;2023-03-01T09:29:12;100203.84;;;2.26;54.74
75996;BME280;64681;49.738;9.004;2023-03-01T09:31:38;100201.13;;;2.16;56.00
75996;BME280;64681;49.738;9.004;2023-03-01T09:34:04;100198.97;;;2.50;54.77
75996;BME280;64681;49.738;9.004;2023-03-01T09:36:30;100195.53;;;3.03;54.17
75996;BME280;64681;49.738;9.004;2023-03-01T09:38:57;100195.53;;;2.45;53.82
75996;BME280;64681;49.738;9.004;2023-03-01T09:43:55;100194.13;;;2.75;54.29
75996;BME280;64681;49.738;9.004;2023-03-01T09:46:25;100190.78;;;2.95;53.61
75996;BME280;64681;49.738;9.004;2023-03-01T09:48:57;100194.59;;;3.30;53.61
75996;BME280;64681;49.738;9.004;2023-03-01T09:51:31;100191.63;;;3.11;53.15
75996;BME280;64681;49.738;9.004;2023-03-01T09:53:58;100193.56;;;3.46;52.28
75996;BME280;64681;49.738;9.004;2023-03-01T09:56:42;100191.22;;;3.71;51.83
75996;BME280;64681;49.738;9.004;2023-03-01T10:09:42;100198.50;;;3.22;52.13
75996;BME280;64681;49.738;9.004;2023-03-01T10:12:12;100196.84;;;2.95;53.36
75996;BME280;64681;49.738;9.004;2023-03-01T10:14:55;100188.34;;;2.83;54.02
75996;BME280;64681;49.738;9.004;2023-03-01T10:22:41;100184.38;;;3.75;51.32
75996;BME280;64681;49.738;9.004;2023-03-01T10:25:14;100172.72;;;3.76;51.19
75996;BME280;64681;49.738;9.004;2023-03-01T10:27:55;100172.69;;;3.40;51.97
75996;BME280;64681;49.738;9.004;2023-03-01T10:30:38;100169.03;;;3.61;51.56
75996;BME280;64681;49.738;9.004;2023-03-01T10:33:24;100171.16;;;3.75;51.89
75996;BME280;64681;49.738;9.004;2023-03-01T10:35:51;100163.72;;;4.23;50.60
75996;BME280;64681;49.738;9.004;2023-03-01T10:38:18;100166.91;;;3.84;50.98
75996;BME280;64681;49.738;9.004;2023-03-01T10:43:42;100153.44;;;3.96;51.49
75996;BME280;64681;49.738;9.004;2023-03-01T10:46:22;100138.41;;;3.81;51.21
75996;BME280;64681;49.738;9.004;2023-03-01T10:51:40;100135.66;;;4.38;49.60
75996;BME280;64681;49.738;9.004;2023-03-01T10:56:53;100142.34;;;3.99;51.22
75996;BME280;64681;49.738;9.004;2023-03-01T10:59:31;100137.06;;;3.89;50.99
75996;BME280;64681;49.738;9.004;2023-03-01T11:04:28;100128.75;;;4.57;49.67
75996;BME280;64681;49.738;9.004;2023-03-01T11:06:59;100125.63;;;4.35;50.45
75996;BME280;64681;49.738;9.004;2023-03-01T11:09:25;100125.03;;;4.53;50.19
75996;BME280;64681;49.738;9.004;2023-03-01T11:11:56;100123.22;;;4.43;49.89
75996;BME280;64681;49.738;9.004;2023-03-01T11:14:35;100114.97;;;4.60;50.33
75996;BME280;64681;49.738;9.004;2023-03-01T11:19:39;100117.72;;;4.24;50.85
75996;BME280;64681;49.738;9.004;2023-03-01T11:22:17;100123.59;;;4.82;49.11
75996;BME280;64681;49.738;9.004;2023-03-01T11:24:49;100110.09;;;4.83;49.38
75996;BME280;64681;49.738;9.004;2023-03-01T11:27:33;100113.47;;;4.44;49.70
75996;BME280;64681;49.738;9.004;2023-03-01T11:30:30;100107.53;;;4.73;49.99
75996;BME280;64681;49.738;9.004;2023-03-01T11:35:37;100098.28;;;4.65;49.92
75996;BME280;64681;49.738;9.004;2023-03-01T11:38:27;100090.56;;;4.79;48.79
75996;BME280;64681;49.738;9.004;2023-03-01T11:41:16;100097.25;;;5.11;47.54
75996;BME280;64681;49.738;9.004;2023-03-01T12:05:27;100044.03;;;5.77;47.17
75996;BME280;64681;49.738;9.004;2023-03-01T12:10:43;100033.59;;;6.15;45.58
75996;BME280;64681;49.738;9.004;2023-03-01T12:25:07;100011.75;;;6.23;45.48
75996;BME280;64681;49.738;9.004;2023-03-01T12:35:30;99989.31;;;6.34;45.40
75996;BME280;64681;49.738;9.004;2023-03-01T12:38:16;99977.50;;;6.46;44.83
75996;BME280;64681;49.738;9.004;2023-03-01T12:44:11;99970.97;;;6.38;45.92
75996;BME280;64681;49.738;9.004;2023-03-01T12:50:05;99958.78;;;6.56;45.32
75996;BME280;64681;49.738;9.004;2023-03-01T12:52:44;99964.16;;;6.70;45.09
75996;BME280;64681;49.738;9.004;2023-03-01T12:55:49;99958.34;;;6.68;44.46
75996;BME280;64681;49.738;9.004;2023-03-01T13:09:38;99933.69;;;6.29;44.59
75996;BME280;64681;49.738;9.004;2023-03-01T13:17:51;99933.91;;;6.33;44.80
75996;BME280;64681;49.738;9.004;2023-03-01T13:20:21;99931.13;;;6.24;45.04
75996;BME280;64681;49.738;9.004;2023-03-01T13:23:02;99923.56;;;6.70;44.08
75996;BME280;64681;49.738;9.004;2023-03-01T13:25:28;99917.94;;;6.90;43.83
75996;BME280;64681;49.738;9.004;2023-03-01T13:30:58;99919.06;;;7.17;43.97
75996;BME280;64681;49.738;9.004;2023-03-01T13:36:02;99910.28;;;6.89;44.09
75996;BME280;64681;49.738;9.004;2023-03-01T13:38:55;99903.75;;;6.81;44.27
75996;BME280;64681;49.738;9.004;2023-03-01T13:46:47;99891.81;;;7.25;43.97
75996;BME280;64681;49.738;9.004;2023-03-01T13:49:18;99884.16;;;7.52;42.71
75996;BME280;64681;49.738;9.004;2023-03-01T13:51:48;99889.88;;;7.45;43.16
75996;BME280;64681;49.738;9.004;2023-03-01T13:54:16;99894.28;;;7.64;42.39
75996;BME280;64681;49.738;9.004;2023-03-01T13:56:44;99879.13;;;7.08;42.56
75996;BME280;64681;49.738;9.004;2023-03-01T13:59:17;99882.16;;;7.02;43.55
75996;BME280;64681;49.738;9.004;2023-03-01T14:01:43;99883.97;;;7.34;43.45
75996;BME280;64681;49.738;9.004;2023-03-01T14:04:23;99880.91;;;7.69;42.82
75996;BME280;64681;49.738;9.004;2023-03-01T14:06:49;99884.84;;;7.16;43.26
75996;BME280;64681;49.738;9.004;2023-03-01T14:09:16;99893.59;;;7.16;42.42
75996;BME280;64681;49.738;9.004;2023-03-01T14:12:09;99894.00;;;7.51;42.35
75996;BME280;64681;49.738;9.004;2023-03-01T14:14:51;99881.38;;;7.71;42.60
75996;BME280;64681;49.738;9.004;2023-03-01T14:17:58;99873.75;;;8.06;42.26
75996;BME280;64681;49.738;9.004;2023-03-01T14:20:32;99862.44;;;8.37;41.35
75996;BME280;64681;49.738;9.004;2023-03-01T14:23:08;99871.56;;;7.71;42.32
75996;BME280;64681;49.738;9.004;2023-03-01T14:25:37;99864.16;;;7.68;42.42
75996;BME280;64681;49.738;9.004;2023-03-01T14:30:39;99862.69;;;7.62;42.61
75996;BME280;64681;49.738;9.004;2023-03-01T14:36:04;99851.22;;;8.03;41.84
75996;BME280;64681;49.738;9.004;2023-03-01T14:38:38;99852.72;;;7.82;41.58
75996;BME280;64681;49.738;9.004;2023-03-01T14:41:09;99849.16;;;7.86;42.95
75996;BME280;64681;49.738;9.004;2023-03-01T14:43:38;99850.38;;;7.80;41.96
75996;BME280;64681;49.738;9.004;2023-03-01T14:46:05;99850.59;;;8.06;41.21
75996;BME280;64681;49.738;9.004;2023-03-01T14:48:32;99841.50;;;8.21;41.18
75996;BME280;64681;49.738;9.004;2023-03-01T14:50:57;99842.81;;;8.10;41.62
75996;BME280;64681;49.738;9.004;2023-03-01T14:53:28;99841.72;;;8.11;42.24
75996;BME280;64681;49.738;9.004;2023-03-01T14:55:59;99844.41;;;7.97;41.78
75996;BME280;64681;49.738;9.004;2023-03-01T14:58:28;99837.22;;;7.61;42.54
75996;BME280;64681;49.738;9.004;2023-03-01T15:00:57;99839.78;;;8.03;41.64
75996;BME280;64681;49.738;9.004;2023-03-01T15:03:35;99832.16;;;8.47;40.58
75996;BME280;64681;49.738;9.004;2023-03-01T15:06:04;99828.69;;;8.46;40.43
75996;BME280;64681;49.738;9.004;2023-03-01T15:08:32;99843.31;;;8.35;40.73
75996;BME280;64681;49.738;9.004;2023-03-01T15:11:15;99844.94;;;8.22;40.68
75996;BME280;64681;49.738;9.004;2023-03-01T15:13:42;99846.19;;;8.24;40.62
75996;BME280;64681;49.738;9.004;2023-03-01T15:16:33;99847.84;;;8.12;41.07
75996;BME280;64681;49.738;9.004;2023-03-01T15:19:05;99845.81;;;7.95;41.44
75996;BME280;64681;49.738;9.004;2023-03-01T15:21:36;99854.50;;;7.86;41.85